Accueil
METAR-TAF:

METAR-TAF

Aéroports :

Aéroport international de Berne

Berne, Suisse

latitude: 46-55N, longitude: 007-30E, altitude: 505 m

Observation

Le bulletin a été fait il y a 28 minutes, à 08:50 UTC
Vent 3 kt de sud/sud-est, variant entre sud-est et sud
Température 15°C
Humidité 82%
Pression 1018 hPa
Visibilité 10 km ou plus
pas de nuages en-dessous de 1500 mètres et pas de cumulonimbus.

METAR: LSZB 140850Z 16003KT 130V190 CAVOK 15/12 Q1018 NOSIG

Heure: 11:18 (09:18 UTC)

Prévision

Le bulletin a été fait il y a 53 minutes, à 08:25 UTC
Prévision valable du 14 à 09 UTC au 14 à 18 UTC
Vent 3 kt de direction variable
Visibilité 10 km ou plus
pas de nuages en-dessous de 1500 mètres et pas de cumulonimbus.

TAF: LSZB 140825Z 1409/1418 VRB03KT CAVOK

Observations et prévisions météorologiques de plus de 4000 aéroports (messages METAR et TAF).

Les stations disponibles sont représentées par des disques jaunes et rouges sur la carte.

Passer la souris dessus pour voir le nom de la station.

Cliquer dessus pour voir les observations et prévisions météorologiques.

Pour changer de carte: cliquez sur les boutons verts avec une croix noire pour zoomer, sur le bouton vert avec un tiret pour effectuer un zoom arrière, ou sur les flèches vertes pour les cartes adjacentes.


METAR-TAF: